Time;durP1;ratioP1;P1;durP2;ratioP2;P2;SDS_P1;SDS_P2;PMS_P1;PMS_P2;Temp;Humidity;BMP_temperature;BMP_pressure;BME280_temperature;BME280_humidity;BME280_pressure;Samples;Min_cycle;Max_cycle;Signal;HPM_P1;HPM_P2
2022/09/01 00:00:22;;;;;;;2.00;1.20;;;;;;;19.81;48.84;100502.72;10337449;28;20042;-72
2022/09/01 00:05:24;;;;;;;3.33;1.10;;;;;;;19.84;48.82;100506.94;10328913;28;20053;-71
2022/09/01 00:10:25;;;;;;;3.05;1.00;;;;;;;19.81;48.69;100507.28;10336986;28;20775;-74
2022/09/01 00:15:27;;;;;;;4.18;1.75;;;;;;;19.77;48.98;100510.34;10335894;28;20103;-72
2022/09/01 00:20:28;;;;;;;2.42;1.08;;;;;;;19.73;48.46;100511.69;10329139;28;20056;-71
2022/09/01 00:25:30;;;;;;;1.60;1.08;;;;;;;19.71;49.25;100518.28;10339501;28;20058;-73
2022/09/01 00:30:31;;;;;;;1.88;1.08;;;;;;;19.69;48.81;100515.75;10332775;28;20129;-70
2022/09/01 00:35:33;;;;;;;1.63;1.13;;;;;;;19.67;49.05;100520.50;10333694;28;20065;-73
2022/09/01 00:40:37;;;;;;;1.20;1.00;;;;;;;19.64;48.62;100510.06;10334792;28;20607;-73
2022/09/01 00:45:40;;;;;;;3.85;1.17;;;;;;;19.58;48.84;100508.06;10335030;28;20072;-73
2022/09/01 00:50:42;;;;;;;1.77;0.97;;;;;;;19.50;49.50;100506.25;10334759;28;20068;-71
2022/09/01 00:55:47;;;;;;;0.90;0.80;;;;;;;19.42;49.26;100499.00;10335818;28;20054;-73
2022/09/01 01:00:51;;;;;;;3.17;0.90;;;;;;;19.32;49.68;100503.78;10331776;28;20647;-72
2022/09/01 01:05:57;;;;;;;3.50;1.10;;;;;;;19.37;49.53;100495.16;10334898;28;20127;-72
2022/09/01 01:11:07;;;;;;;1.55;1.10;;;;;;;19.29;49.69;100511.38;10331225;28;20148;-71
2022/09/01 01:16:09;;;;;;;2.55;1.13;;;;;;;19.10;50.14;100497.28;10336633;28;20041;-71
2022/09/01 01:27:06;;;;;;;2.20;0.93;;;;;;;19.23;50.43;100488.63;10230053;28;20535;-72
2022/09/01 01:32:11;;;;;;;1.75;0.90;;;;;;;19.16;50.25;100480.41;10334680;28;20056;-72
2022/09/01 01:37:15;;;;;;;2.45;1.20;;;;;;;19.16;50.48;100490.34;10331360;28;20136;-74
2022/09/01 01:42:17;;;;;;;1.92;1.63;;;;;;;19.14;50.81;100473.47;10332134;28;20615;-73
2022/09/01 01:47:19;;;;;;;1.17;1.05;;;;;;;19.12;50.76;100476.34;10334954;28;20880;-73
2022/09/01 01:52:21;;;;;;;2.20;1.30;;;;;;;19.15;51.46;100480.56;10333290;28;20053;-74
2022/09/01 01:57:30;;;;;;;2.70;1.00;;;;;;;19.16;51.64;100474.16;10332081;28;20048;-73
2022/09/01 02:02:32;;;;;;;2.35;1.13;;;;;;;19.16;51.54;100482.25;10331857;28;20182;-74
2022/09/01 02:07:33;;;;;;;3.13;1.63;;;;;;;19.08;51.75;100477.75;10331824;28;20056;-71
2022/09/01 02:12:36;;;;;;;1.70;1.13;;;;;;;19.05;51.33;100476.22;10330775;28;20049;-72
2022/09/01 02:17:38;;;;;;;2.13;1.57;;;;;;;19.08;51.47;100469.66;10331699;28;20069;-73
2022/09/01 02:22:42;;;;;;;2.40;1.20;;;;;;;19.00;52.32;100475.88;10332274;28;20049;-73
2022/09/01 02:27:45;;;;;;;2.40;1.60;;;;;;;19.03;51.62;100462.03;10330784;28;20077;-70
2022/09/01 02:32:47;;;;;;;2.90;2.40;;;;;;;19.03;52.20;100464.75;10333870;28;20504;-72
2022/09/01 02:37:50;;;;;;;2.97;2.08;;;;;;;18.92;51.82;100470.53;10331915;28;20477;-69
2022/09/01 02:42:54;;;;;;;4.25;2.03;;;;;;;18.89;52.35;100470.88;10331803;28;20050;-66
2022/09/01 02:47:56;;;;;;;;;;;;;;;18.86;52.16;100465.81;10329930;28;20137;-73
2022/09/01 02:53:00;;;;;;;2.42;1.70;;;;;;;18.78;52.43;100460.41;10333391;28;19927;-71
2022/09/01 02:58:06;;;;;;;2.90;1.45;;;;;;;18.75;52.71;100476.94;10332053;28;20049;-70
2022/09/01 03:03:08;;;;;;;2.20;1.33;;;;;;;18.77;52.40;100474.91;10330814;28;20048;-71
2022/09/01 03:08:14;;;;;;;3.10;1.60;;;;;;;18.68;53.69;100464.13;10326821;28;20785;-71
2022/09/01 03:13:19;;;;;;;2.53;1.60;;;;;;;18.69;52.87;100465.84;10331363;28;20069;-71
2022/09/01 03:18:20;;;;;;;7.22;1.77;;;;;;;18.60;53.14;100456.09;10335456;28;20046;-73
2022/09/01 03:23:24;;;;;;;2.97;1.23;;;;;;;18.60;52.79;100450.69;10347659;28;20058;-67
2022/09/01 03:28:26;;;;;;;2.83;1.30;;;;;;;18.51;52.72;100462.47;10340285;28;20053;-71
2022/09/01 03:33:29;;;;;;;1.63;1.30;;;;;;;18.53;53.05;100455.91;10340497;28;20176;-72
2022/09/01 03:38:32;;;;;;;1.63;0.93;;;;;;;18.54;53.01;100456.75;10341609;28;20619;-69
2022/09/01 03:43:34;;;;;;;2.50;1.07;;;;;;;18.52;53.46;100464.16;10337433;28;20132;-73
2022/09/01 03:48:37;;;;;;;1.50;1.40;;;;;;;18.41;52.99;100456.44;10338990;28;20120;-70
2022/09/01 03:53:39;;;;;;;3.55;1.20;;;;;;;18.29;53.50;100453.25;10335782;28;20057;-72
2022/09/01 03:58:45;;;;;;;1.92;1.15;;;;;;;18.33;53.84;100450.03;10336434;28;20056;-71
2022/09/01 04:03:47;;;;;;;3.00;1.23;;;;;;;18.27;53.59;100458.81;10334589;28;20564;-70
2022/09/01 04:08:54;;;;;;;3.38;1.55;;;;;;;18.24;53.50;100461.84;10336187;28;20562;-72
2022/09/01 04:13:55;;;;;;;2.17;1.10;;;;;;;18.23;54.14;100448.53;10337482;28;20037;-73
2022/09/01 04:18:58;;;;;;;2.20;1.20;;;;;;;18.22;54.14;100457.63;10337404;28;20063;-72
2022/09/01 04:24:04;;;;;;;;;;;;;;;18.27;53.53;100463.31;10336194;28;20133;-70
2022/09/01 04:29:07;;;;;;;2.08;1.10;;;;;;;18.23;53.71;100465.53;10336567;28;19930;-71
2022/09/01 04:34:12;;;;;;;;;;;;;;;18.15;54.11;100465.50;10338385;28;20050;-68
2022/09/01 04:39:14;;;;;;;3.13;1.50;;;;;;;18.07;54.11;100452.06;10339038;28;19922;-70
2022/09/01 04:44:17;;;;;;;3.33;1.75;;;;;;;18.08;54.25;100456.44;10335268;28;20078;-71
2022/09/01 04:49:23;;;;;;;1.52;1.40;;;;;;;18.04;54.28;100464.00;10336345;28;20133;-69
2022/09/01 04:54:24;;;;;;;2.67;1.17;;;;;;;17.98;54.10;100462.81;10294612;28;20527;-70
2022/09/01 04:59:27;;;;;;;1.35;1.13;;;;;;;17.82;54.41;100462.78;10303064;28;20045;-72
2022/09/01 05:04:32;;;;;;;2.42;1.70;;;;;;;17.82;54.69;100462.78;10306801;28;20052;-69
2022/09/01 05:09:35;;;;;;;1.38;1.20;;;;;;;17.53;55.29;100464.03;10303189;28;20866;-71
2022/09/01 05:14:42;;;;;;;4.03;1.55;;;;;;;17.52;55.63;100473.13;10306320;28;20532;-73
2022/09/01 05:19:47;;;;;;;2.33;1.45;;;;;;;17.61;54.97;100482.06;10309904;28;20044;-73
2022/09/01 05:24:50;;;;;;;3.25;1.70;;;;;;;17.69;54.77;100473.19;10309053;28;20055;-70
2022/09/01 05:29:58;;;;;;;2.33;1.40;;;;;;;17.73;55.06;100478.06;10309068;28;20909;-73
2022/09/01 05:35:01;;;;;;;2.13;1.38;;;;;;;17.81;54.89;100488.00;10308833;28;20060;-71
2022/09/01 05:40:08;;;;;;;2.22;1.20;;;;;;;17.79;54.25;100490.88;10307596;28;20046;-72
2022/09/01 05:45:13;;;;;;;5.90;1.95;;;;;;;17.84;54.68;100485.00;10310147;28;20065;-74
2022/09/01 05:50:18;;;;;;;2.42;1.40;;;;;;;17.94;54.34;100491.09;10310628;28;20057;-70
2022/09/01 05:55:19;;;;;;;1.80;1.40;;;;;;;17.89;54.10;100489.88;10308543;28;20455;-72
2022/09/01 06:00:21;;;;;;;1.90;1.38;;;;;;;17.98;53.91;100495.13;10311489;28;20157;-72
2022/09/01 06:05:25;;;;;;;2.88;1.77;;;;;;;18.09;53.41;100485.03;10309627;28;21517;-74
2022/09/01 06:10:28;;;;;;;2.40;1.88;;;;;;;18.16;53.02;100486.06;10310988;28;20058;-79
2022/09/01 06:15:31;;;;;;;1.92;1.02;;;;;;;18.26;52.66;100494.00;10316620;28;20057;-73
2022/09/01 06:20:32;;;;;;;3.97;1.10;;;;;;;18.25;52.71;100490.44;10319228;28;20695;-71
2022/09/01 06:25:38;;;;;;;3.40;1.38;;;;;;;18.27;52.76;100499.22;10324829;28;20050;-73
2022/09/01 06:30:41;;;;;;;2.78;1.20;;;;;;;18.41;52.58;100504.94;10304794;28;20054;-74
2022/09/01 06:35:45;;;;;;;2.07;0.90;;;;;;;18.44;52.46;100493.84;10300597;28;20062;-72
2022/09/01 06:40:47;;;;;;;1.70;0.73;;;;;;;18.57;52.29;100515.72;10303534;28;20284;-73
2022/09/01 06:45:53;;;;;;;1.98;1.05;;;;;;;18.67;52.15;100510.97;10301987;28;20053;-74
2022/09/01 06:50:58;;;;;;;;;;;;;;;18.76;52.42;100513.69;10307363;28;20494;-73
2022/09/01 06:56:19;;;;;;;3.70;1.10;;;;;;;18.92;52.30;100508.28;10305730;28;19921;-74
2022/09/01 07:01:22;;;;;;;2.25;1.00;;;;;;;19.07;51.18;100511.94;10306653;28;20299;-74
2022/09/01 07:06:28;;;;;;;3.58;1.27;;;;;;;19.18;50.85;100507.19;10310396;28;20049;-73
2022/09/01 07:11:49;;;;;;;2.03;0.90;;;;;;;19.24;50.64;100504.63;10309272;28;20481;-74
2022/09/01 07:17:11;;;;;;;2.65;1.20;;;;;;;19.43;50.33;100510.66;10308909;28;20061;-70
2022/09/01 07:22:27;;;;;;;3.17;1.02;;;;;;;19.57;50.76;100526.09;10306508;28;20584;-71
2022/09/01 07:27:49;;;;;;;2.97;0.98;;;;;;;19.83;50.09;100526.84;10300741;28;20544;-71
2022/09/01 07:32:51;;;;;;;4.32;1.00;;;;;;;19.99;49.68;100510.53;10304585;28;20050;-71
2022/09/01 07:37:55;;;;;;;1.57;0.97;;;;;;;20.17;48.93;100518.34;10303173;28;20172;-72
2022/09/01 07:43:23;;;;;;;4.18;1.20;;;;;;;20.33;48.33;100520.09;10302407;28;20312;-73
2022/09/01 07:48:30;;;;;;;2.67;1.05;;;;;;;20.41;48.63;100525.44;10304072;28;20042;-75
2022/09/01 07:53:52;;;;;;;1.27;0.82;;;;;;;20.63;47.85;100522.91;10306186;28;20958;-73
2022/09/01 07:58:53;;;;;;;2.22;0.88;;;;;;;20.78;47.69;100531.09;10301468;28;20058;-72
2022/09/01 08:03:58;;;;;;;5.25;1.27;;;;;;;20.92;46.86;100529.41;10309490;28;20046;-73
2022/09/01 08:08:59;;;;;;;2.15;0.93;;;;;;;21.39;46.54;100530.06;10316096;28;20056;-74
2022/09/01 08:14:01;;;;;;;2.30;1.08;;;;;;;21.57;46.67;100535.13;10311830;28;20053;-75
2022/09/01 08:19:02;;;;;;;2.45;0.80;;;;;;;21.75;45.78;100538.25;10309439;28;20275;-74
2022/09/01 08:24:04;;;;;;;4.97;0.90;;;;;;;21.93;45.00;100540.56;10312248;28;20364;-72
2022/09/01 08:29:05;;;;;;;1.17;0.60;;;;;;;22.02;44.42;100541.28;10308160;28;20065;-73
2022/09/01 08:34:07;;;;;;;1.48;1.00;;;;;;;22.07;44.57;100536.97;10310809;28;20337;-75
2022/09/01 08:39:08;;;;;;;2.70;1.10;;;;;;;22.33;44.43;100540.19;10301210;28;24849;-72
2022/09/01 08:44:36;;;;;;;2.75;1.13;;;;;;;22.83;43.72;100543.72;10309412;28;21391;-71
2022/09/01 08:49:39;;;;;;;2.45;0.70;;;;;;;23.07;42.35;100545.16;10301897;28;20072;-74
2022/09/01 08:54:49;;;;;;;2.97;1.00;;;;;;;23.07;42.83;100542.44;10308244;28;20049;-76
2022/09/01 08:59:51;;;;;;;2.42;0.68;;;;;;;23.37;42.17;100535.97;10350936;28;20054;-74
2022/09/01 09:05:21;;;;;;;4.90;1.03;;;;;;;23.73;42.10;100543.03;10329172;28;20129;-73
2022/09/01 09:10:29;;;;;;;3.60;0.88;;;;;;;24.14;40.46;100539.41;10334157;28;20557;-74
2022/09/01 09:15:39;;;;;;;4.40;0.77;;;;;;;24.26;40.54;100537.78;10314008;28;20255;-77
2022/09/01 09:20:41;;;;;;;1.75;0.70;;;;;;;24.54;39.95;100525.84;10309074;28;20976;-74
2022/09/01 09:25:43;;;;;;;5.80;1.00;;;;;;;25.00;39.23;100525.00;10309082;28;20072;-76
2022/09/01 09:30:44;;;;;;;3.90;1.10;;;;;;;25.33;38.26;100515.13;10312824;28;20080;-74
2022/09/01 09:35:46;;;;;;;1.58;0.80;;;;;;;25.61;38.62;100514.78;10312409;28;20085;-73
2022/09/01 09:41:13;;;;;;;2.63;0.88;;;;;;;26.04;36.95;100507.91;10311790;28;20146;-76
2022/09/01 09:46:22;;;;;;;3.40;0.80;;;;;;;26.36;37.48;100506.00;10309697;28;20050;-76
2022/09/01 09:51:26;;;;;;;2.75;0.70;;;;;;;26.76;36.46;100493.91;10307358;28;20536;-72
2022/09/01 09:56:29;;;;;;;2.25;0.90;;;;;;;26.93;35.81;100496.88;10311171;28;20041;-76
2022/09/01 10:01:33;;;;;;;3.70;1.08;;;;;;;27.54;35.45;100477.94;10308929;28;20235;-75
2022/09/01 10:06:46;;;;;;;2.30;0.60;;;;;;;27.93;33.06;100471.06;10309351;28;20058;-72
2022/09/01 10:11:58;;;;;;;3.53;1.08;;;;;;;28.69;32.78;100473.25;10309820;28;20038;-73
2022/09/01 10:17:03;;;;;;;1.42;0.68;;;;;;;29.46;30.43;100474.13;10314893;28;20171;-75
2022/09/01 10:22:08;;;;;;;1.55;0.80;;;;;;;33.12;25.23;100470.22;10312065;28;20041;-75
2022/09/01 10:27:22;;;;;;;1.42;0.93;;;;;;;34.14;23.68;100470.75;10317855;28;20061;-76
2022/09/01 10:32:28;;;;;;;2.08;0.73;;;;;;;33.18;24.14;100464.69;10314617;28;20141;-73
2022/09/01 10:37:39;;;;;;;2.30;0.60;;;;;;;30.02;28.30;100463.38;10304259;28;20046;-72
2022/09/01 10:42:45;;;;;;;2.95;0.90;;;;;;;29.38;29.23;100458.88;10309883;28;20682;-72
2022/09/01 10:47:46;;;;;;;2.03;0.77;;;;;;;30.40;28.76;100456.31;10303888;28;20065;-74
2022/09/01 10:52:47;;;;;;;3.35;1.13;;;;;;;33.23;25.29;100454.56;10303302;28;20104;-74
2022/09/01 10:58:14;;;;;;;1.63;0.70;;;;;;;35.39;21.42;100460.03;10301458;28;20613;-74
2022/09/01 11:03:55;;;;;;;2.90;0.70;;;;;;;38.00;19.15;100440.94;10303726;28;20610;-77
2022/09/01 11:09:04;;;;;;;1.38;0.50;;;;;;;40.09;16.76;100436.09;10305315;28;20052;-75
2022/09/01 11:14:18;;;;;;;2.75;0.50;;;;;;;41.50;15.29;100438.28;10302407;28;20497;-77
2022/09/01 11:19:25;;;;;;;0.70;0.45;;;;;;;42.43;14.53;100435.22;10304273;28;20056;-73
2022/09/01 11:24:37;;;;;;;1.13;0.25;;;;;;;43.21;14.14;100431.22;10299907;28;20049;-74
2022/09/01 11:29:54;;;;;;;1.30;0.55;;;;;;;43.89;12.41;100432.97;10300386;28;20045;-75
2022/09/01 11:34:56;;;;;;;1.88;0.40;;;;;;;44.76;12.00;100419.94;10304568;28;20069;-75
2022/09/01 11:40:03;;;;;;;1.90;0.52;;;;;;;45.09;12.48;100406.94;10309095;28;20089;-74
2022/09/01 11:45:24;;;;;;;2.65;0.38;;;;;;;41.88;13.97;100413.63;10315951;28;20365;-75
2022/09/01 11:50:34;;;;;;;1.98;0.50;;;;;;;44.22;12.59;100404.13;10314079;28;20531;-76
2022/09/01 11:55:39;;;;;;;1.13;0.50;;;;;;;44.59;11.67;100404.16;10298777;28;20056;-79
2022/09/01 12:00:41;;;;;;;4.35;0.57;;;;;;;43.74;12.79;100391.56;10313305;28;20109;-78
2022/09/01 12:05:45;;;;;;;1.13;0.40;;;;;;;39.91;15.25;100382.19;10313439;28;20368;-78
2022/09/01 12:10:47;;;;;;;1.00;0.50;;;;;;;42.41;13.42;100375.97;10310954;28;20049;-76
2022/09/01 12:16:07;;;;;;;1.27;0.40;;;;;;;42.92;13.14;100379.69;10314787;28;20669;-74
2022/09/01 12:21:32;;;;;;;0.88;0.45;;;;;;;41.44;14.02;100366.97;10312649;28;20062;-74
2022/09/01 12:26:33;;;;;;;;;;;;;;;37.58;17.55;100361.34;10313505;28;20139;-73
2022/09/01 12:31:36;;;;;;;1.80;0.60;;;;;;;34.02;20.94;100354.22;10313479;28;19937;-75
2022/09/01 12:36:37;;;;;;;1.25;0.45;;;;;;;32.36;23.38;100347.44;10317114;28;20061;-76
2022/09/01 12:41:39;;;;;;;3.63;1.30;;;;;;;31.78;24.47;100343.69;10323145;28;20642;-78
2022/09/01 12:46:44;;;;;;;1.35;0.73;;;;;;;32.03;24.03;100343.88;10319083;28;20169;-75
2022/09/01 12:51:47;;;;;;;1.10;0.85;;;;;;;31.95;24.59;100338.88;10317829;28;20053;-73
2022/09/01 12:56:50;;;;;;;1.55;0.50;;;;;;;31.62;24.07;100343.56;10317844;28;20069;-76
2022/09/01 13:01:52;;;;;;;1.33;0.50;;;;;;;31.07;24.41;100331.72;10313831;28;20072;-75
2022/09/01 13:07:05;;;;;;;3.97;0.65;;;;;;;30.13;25.27;100334.31;10315263;28;20856;-73
2022/09/01 13:12:14;;;;;;;1.70;0.65;;;;;;;29.71;25.75;100325.66;10310552;28;20460;-71
2022/09/01 13:17:16;;;;;;;1.05;0.80;;;;;;;29.46;26.33;100320.59;10312972;28;20361;-73
2022/09/01 13:22:17;;;;;;;1.02;0.63;;;;;;;29.91;25.81;100320.53;10311102;28;20309;-73
2022/09/01 13:27:20;;;;;;;1.88;0.60;;;;;;;29.93;25.06;100326.59;10316206;28;20053;-73
2022/09/01 13:32:23;;;;;;;1.35;0.80;;;;;;;29.42;25.89;100318.31;10300504;28;20050;-75
2022/09/01 13:37:25;;;;;;;0.95;0.85;;;;;;;29.43;25.13;100316.41;10317071;28;20073;-75
2022/09/01 13:42:26;;;;;;;2.45;0.90;;;;;;;29.90;25.21;100313.38;10313501;28;20216;-76
2022/09/01 13:47:29;;;;;;;2.25;1.00;;;;;;;29.74;24.21;100308.69;10315173;28;20273;-73
2022/09/01 13:52:31;;;;;;;3.35;1.10;;;;;;;29.55;25.05;100306.19;10308511;28;20363;-73
2022/09/01 13:57:34;;;;;;;1.77;0.90;;;;;;;29.26;25.49;100297.22;10308841;28;20065;-76
2022/09/01 14:02:47;;;;;;;1.65;1.13;;;;;;;29.23;25.90;100303.16;10305822;28;20128;-77
2022/09/01 14:07:49;;;;;;;;;;;;;;;29.25;25.41;100288.13;10325646;28;20084;-76
2022/09/01 14:12:50;;;;;;;3.33;1.00;;;;;;;28.91;25.69;100287.19;10305196;28;20784;-75
2022/09/01 14:17:55;;;;;;;1.25;1.00;;;;;;;28.41;26.20;100291.38;10307037;28;20080;-75
2022/09/01 14:22:57;;;;;;;2.78;1.00;;;;;;;28.05;26.83;100282.38;10307710;28;20045;-73
2022/09/01 14:28:02;;;;;;;1.30;1.00;;;;;;;28.04;28.09;100280.69;10312502;28;20057;-73
2022/09/01 14:33:06;;;;;;;1.08;0.77;;;;;;;27.84;27.63;100276.38;10337035;28;20050;-74
2022/09/01 14:38:09;;;;;;;3.17;1.02;;;;;;;27.50;28.08;100276.13;10307013;28;20057;-74
2022/09/01 14:43:12;;;;;;;0.88;0.70;;;;;;;27.36;27.46;100271.94;10306301;28;20054;-76
2022/09/01 14:48:16;;;;;;;1.67;1.10;;;;;;;27.16;29.19;100270.31;10307815;28;20054;-75
2022/09/01 14:53:18;;;;;;;1.75;1.13;;;;;;;27.08;27.16;100270.66;10307818;28;20124;-73
2022/09/01 14:58:20;;;;;;;1.67;1.02;;;;;;;27.63;27.07;100257.84;10308958;28;20050;-74
2022/09/01 15:03:25;;;;;;;3.10;1.38;;;;;;;27.29;26.59;100252.03;10307913;28;20065;-78
2022/09/01 15:08:27;;;;;;;1.00;0.85;;;;;;;27.16;26.78;100248.44;10314116;28;20417;-74
2022/09/01 15:13:28;;;;;;;2.45;0.90;;;;;;;26.84;27.24;100249.75;10312623;28;20056;-76
2022/09/01 15:18:30;;;;;;;1.23;0.88;;;;;;;26.63;27.47;100250.00;10316054;28;20087;-75
2022/09/01 15:23:31;;;;;;;1.63;0.80;;;;;;;26.66;27.86;100243.22;10329563;28;20145;-75
2022/09/01 15:28:32;;;;;;;1.80;1.00;;;;;;;26.61;27.92;100240.38;10319049;28;20246;-75
2022/09/01 15:33:34;;;;;;;3.17;1.52;;;;;;;26.56;27.26;100240.25;10313748;28;20133;-76
2022/09/01 15:38:38;;;;;;;3.78;1.30;;;;;;;26.24;27.40;100230.34;10312660;28;20408;-73
2022/09/01 15:43:40;;;;;;;3.83;1.17;;;;;;;26.33;28.14;100241.75;10312327;28;20060;-77
2022/09/01 15:48:44;;;;;;;1.17;0.80;;;;;;;26.43;27.48;100236.59;10312071;28;20156;-73
2022/09/01 15:53:46;;;;;;;3.55;1.20;;;;;;;26.34;27.71;100231.69;10307051;28;20603;-76
2022/09/01 15:58:49;;;;;;;1.33;0.80;;;;;;;26.18;27.70;100233.13;10313391;28;20045;-78
2022/09/01 16:04:03;;;;;;;3.90;1.00;;;;;;;26.18;28.54;100244.03;10309806;28;20235;-76
2022/09/01 16:09:06;;;;;;;2.90;1.00;;;;;;;26.11;27.55;100239.50;10312504;28;20057;-74
2022/09/01 16:14:07;;;;;;;3.05;1.20;;;;;;;26.17;28.25;100234.19;10296029;28;20064;-72
2022/09/01 16:19:51;;;;;;;1.45;0.98;;;;;;;26.09;28.21;100235.31;10308641;28;20049;-76
2022/09/01 16:24:56;;;;;;;1.48;0.90;;;;;;;25.97;27.82;100218.81;10307660;28;20053;-76
2022/09/01 16:30:06;;;;;;;2.58;1.40;;;;;;;25.81;28.05;100223.00;10315015;28;20072;-78
2022/09/01 16:35:08;;;;;;;1.13;0.73;;;;;;;25.70;28.26;100219.13;10312028;28;20042;-71
2022/09/01 16:40:41;;;;;;;2.00;1.00;;;;;;;25.66;29.21;100225.25;10311087;28;20049;-73
2022/09/01 16:46:09;;;;;;;2.15;1.08;;;;;;;25.52;29.09;100224.50;10312268;28;20501;-72
2022/09/01 16:51:42;;;;;;;1.73;0.90;;;;;;;25.43;29.41;100223.13;10310693;28;20591;-77
2022/09/01 16:56:54;;;;;;;4.00;1.13;;;;;;;25.40;29.81;100218.94;10312543;28;20046;-72
2022/09/01 17:02:28;;;;;;;1.92;1.05;;;;;;;25.26;30.80;100218.19;10312613;28;20290;-74
2022/09/01 17:07:50;;;;;;;154.77;50.95;;;;;;;25.20;32.04;100216.34;10314470;28;20049;-74
2022/09/01 17:12:57;;;;;;;43.00;15.88;;;;;;;25.13;32.16;100219.16;10315774;28;20120;-75
2022/09/01 17:18:15;;;;;;;3.00;1.45;;;;;;;25.00;30.98;100214.59;10317155;28;20097;-75
2022/09/01 17:23:26;;;;;;;1.60;1.10;;;;;;;24.75;30.73;100209.09;10315004;28;20240;-73
2022/09/01 17:28:46;;;;;;;2.22;1.10;;;;;;;24.51;31.06;100202.50;10317862;28;20054;-74
2022/09/01 17:34:05;;;;;;;2.00;1.25;;;;;;;24.46;31.72;100213.22;10319529;28;20054;-73
2022/09/01 17:39:35;;;;;;;2.38;1.40;;;;;;;24.37;31.36;100214.50;10325838;28;20054;-76
2022/09/01 17:44:55;;;;;;;2.33;1.27;;;;;;;24.23;31.92;100214.56;10318600;28;20046;-75
2022/09/01 17:49:56;;;;;;;1.65;1.30;;;;;;;24.14;31.85;100221.25;10315321;28;20082;-76
2022/09/01 17:55:16;;;;;;;6.18;1.33;;;;;;;23.99;32.57;100216.94;10315819;28;20058;-75
2022/09/01 18:00:38;;;;;;;1.60;1.10;;;;;;;23.94;33.25;100210.44;10313728;28;20042;-72
2022/09/01 18:05:59;;;;;;;2.78;1.33;;;;;;;23.89;34.92;100205.66;10311090;28;20442;-74
2022/09/01 18:11:15;;;;;;;2.50;1.23;;;;;;;23.80;34.76;100220.47;10298457;28;20246;-74
2022/09/01 18:16:35;;;;;;;1.95;1.10;;;;;;;23.72;34.85;100221.53;10303756;28;20060;-75
2022/09/01 18:21:43;;;;;;;2.65;1.27;;;;;;;23.64;35.28;100238.91;10312893;28;20046;-73
2022/09/01 18:26:50;;;;;;;3.65;1.45;;;;;;;23.48;34.32;100234.72;10308291;28;20807;-72
2022/09/01 18:32:13;;;;;;;4.20;1.45;;;;;;;23.38;34.84;100247.03;10317604;28;20050;-74
2022/09/01 18:37:42;;;;;;;3.23;1.50;;;;;;;23.33;35.40;100252.25;10315916;28;20054;-71
2022/09/01 18:42:49;;;;;;;1.90;1.35;;;;;;;23.26;36.19;100258.50;10307826;28;20417;-73
2022/09/01 18:47:54;;;;;;;3.45;1.80;;;;;;;23.19;36.68;100246.81;10323719;28;20064;-74
2022/09/01 18:53:04;;;;;;;2.08;1.77;;;;;;;23.12;36.50;100263.09;10306713;28;20180;-73
2022/09/01 18:58:14;;;;;;;4.75;1.52;;;;;;;22.99;35.89;100256.78;10311108;28;20056;-75
2022/09/01 19:03:34;;;;;;;4.38;1.75;;;;;;;22.93;36.36;100270.09;10305813;28;20058;-76
2022/09/01 19:09:13;;;;;;;2.38;1.30;;;;;;;22.88;36.60;100267.19;10298420;28;20042;-73
2022/09/01 19:14:23;;;;;;;2.78;0.88;;;;;;;22.80;36.31;100269.22;10303436;28;20468;-73
2022/09/01 19:19:58;;;;;;;1.98;1.20;;;;;;;22.75;36.94;100278.81;10301811;28;20453;-73
2022/09/01 19:30:30;;;;;;;1.75;1.20;;;;;;;22.55;37.01;100278.75;10306877;28;20049;-70
2022/09/01 19:35:39;;;;;;;3.05;1.52;;;;;;;22.56;36.19;100283.13;10311686;28;20046;-74
2022/09/01 19:40:43;;;;;;;3.25;1.33;;;;;;;22.50;37.17;100281.19;10307462;28;20349;-72
2022/09/01 19:45:58;;;;;;;1.80;0.95;;;;;;;22.44;37.49;100292.84;10310199;28;20403;-72
2022/09/01 19:51:06;;;;;;;2.42;1.08;;;;;;;22.33;36.32;100283.41;10311513;28;20508;-70
2022/09/01 19:56:27;;;;;;;4.35;1.70;;;;;;;22.21;37.90;100298.53;10319759;28;20387;-74
2022/09/01 20:01:58;;;;;;;2.00;1.38;;;;;;;22.11;37.08;100298.88;10299361;28;20145;-71
2022/09/01 20:07:01;;;;;;;1.58;1.17;;;;;;;22.05;36.75;100294.25;10304181;28;20725;-72
2022/09/01 20:12:11;;;;;;;4.35;1.63;;;;;;;22.02;37.63;100300.06;10317821;28;20120;-73
2022/09/01 20:17:24;;;;;;;1.50;1.20;;;;;;;21.98;38.43;100299.66;10331885;28;20183;-73
2022/09/01 20:22:45;;;;;;;;;;;;;;;21.90;37.55;100297.06;10326099;28;20119;-72
2022/09/01 20:27:54;;;;;;;3.58;1.42;;;;;;;21.84;37.32;100300.56;10329229;28;19957;-70
2022/09/01 20:33:08;;;;;;;1.60;1.00;;;;;;;21.76;37.77;100306.97;10346391;28;20053;-72
2022/09/01 20:43:53;;;;;;;1.17;0.70;;;;;;;21.62;38.99;100319.56;10335040;28;20046;-73
2022/09/01 20:48:55;;;;;;;2.05;0.93;;;;;;;21.60;37.94;100315.38;10333083;28;20050;-74
2022/09/01 20:54:13;;;;;;;2.10;1.13;;;;;;;21.56;37.80;100309.50;10333124;28;20528;-71
2022/09/01 20:59:24;;;;;;;3.58;0.85;;;;;;;21.58;37.84;100329.09;10329309;28;20046;-74
2022/09/01 21:04:28;;;;;;;1.40;0.90;;;;;;;21.44;37.78;100328.13;10333047;28;20054;-73
2022/09/01 21:09:51;;;;;;;1.52;1.00;;;;;;;21.41;38.75;100327.66;10332760;28;20456;-73
2022/09/01 21:15:06;;;;;;;2.77;1.30;;;;;;;21.32;38.64;100325.06;10330186;28;20042;-72
2022/09/01 21:20:35;;;;;;;2.47;1.08;;;;;;;21.30;39.03;100329.00;10329652;28;20038;-74
2022/09/01 21:25:36;;;;;;;2.55;1.05;;;;;;;21.29;38.04;100321.94;10333236;28;20058;-71
2022/09/01 21:30:38;;;;;;;2.28;1.00;;;;;;;21.21;38.19;100324.75;10333631;28;20076;-71
2022/09/01 21:35:39;;;;;;;1.48;0.75;;;;;;;21.05;38.59;100315.84;10333035;28;20050;-73
2022/09/01 21:40:41;;;;;;;1.92;1.00;;;;;;;20.93;38.90;100322.78;10337948;28;20057;-73
2022/09/01 21:45:43;;;;;;;2.35;0.75;;;;;;;20.75;38.93;100321.31;10336427;28;20152;-75
2022/09/01 21:50:45;;;;;;;1.45;0.90;;;;;;;20.65;39.62;100321.56;10335120;28;20121;-74
2022/09/01 21:55:46;;;;;;;2.20;1.20;;;;;;;20.59;39.75;100322.31;10331250;28;20046;-74
2022/09/01 22:00:47;;;;;;;2.00;1.05;;;;;;;20.52;39.83;100312.44;10331385;28;20593;-71
2022/09/01 22:05:50;;;;;;;4.03;1.20;;;;;;;20.47;40.11;100313.81;10330435;28;20049;-74
2022/09/01 22:10:53;;;;;;;2.15;0.90;;;;;;;20.44;40.23;100311.50;10332550;28;20056;-73
2022/09/01 22:15:54;;;;;;;2.83;0.90;;;;;;;20.33;40.50;100306.56;10330909;28;20046;-72
2022/09/01 22:21:07;;;;;;;3.78;1.23;;;;;;;20.22;40.94;100298.91;10331391;28;20071;-74
2022/09/01 22:26:20;;;;;;;1.80;0.93;;;;;;;20.21;41.33;100299.94;10329395;28;20053;-76
2022/09/01 22:31:23;;;;;;;3.67;1.13;;;;;;;20.19;41.31;100299.28;10328974;28;20052;-73
2022/09/01 22:36:28;;;;;;;3.08;1.30;;;;;;;20.18;41.27;100298.44;10345794;28;20053;-74
2022/09/01 22:41:31;;;;;;;1.83;1.00;;;;;;;20.16;42.10;100310.47;10330234;28;20064;-73
2022/09/01 22:46:34;;;;;;;1.30;0.85;;;;;;;20.07;41.60;100297.03;10329533;28;20060;-73
2022/09/01 22:51:40;;;;;;;2.70;0.80;;;;;;;19.87;41.99;100296.72;10326724;28;20046;-75
2022/09/01 22:56:42;;;;;;;0.95;0.60;;;;;;;19.89;41.88;100299.25;10321673;28;20538;-73
2022/09/01 23:01:46;;;;;;;2.47;0.80;;;;;;;19.84;42.40;100307.91;10328558;28;20616;-75
2022/09/01 23:06:50;;;;;;;2.58;1.13;;;;;;;19.77;42.27;100291.59;10328729;28;20519;-75
2022/09/01 23:11:52;;;;;;;2.92;1.02;;;;;;;19.83;42.72;100290.03;10327694;28;20056;-75
2022/09/01 23:16:54;;;;;;;1.73;1.08;;;;;;;19.91;42.88;100286.41;10330665;28;20161;-73
2022/09/01 23:21:55;;;;;;;1.88;1.00;;;;;;;19.87;42.57;100285.09;10331293;28;20046;-73
2022/09/01 23:26:56;;;;;;;1.77;1.15;;;;;;;19.87;42.64;100287.78;10333649;28;20711;-75
2022/09/01 23:31:58;;;;;;;2.60;1.10;;;;;;;19.86;42.86;100280.69;10329610;28;20054;-75
2022/09/01 23:36:59;;;;;;;3.08;0.98;;;;;;;19.80;42.55;100278.72;10334302;28;20777;-74
2022/09/01 23:42:01;;;;;;;1.88;1.10;;;;;;;19.88;43.35;100292.19;10339281;28;20045;-74
2022/09/01 23:47:02;;;;;;;1.70;1.20;;;;;;;19.87;42.60;100285.91;10337577;28;20050;-72
2022/09/01 23:52:04;;;;;;;3.22;1.35;;;;;;;19.83;43.12;100289.16;10337876;28;20145;-74